sensor_id;sensor_type;location;lat;lon;timestamp;temperature;humidity
38938;DHT22;24727;51.974;20.868;2023-10-19T00:00:46;0.70;1.00
38938;DHT22;24727;51.974;20.868;2023-10-19T00:03:17;0.70;1.00
38938;DHT22;24727;51.974;20.868;2023-10-19T00:05:46;0.60;1.00
38938;DHT22;24727;51.974;20.868;2023-10-19T00:08:16;0.60;1.00
38938;DHT22;24727;51.974;20.868;2023-10-19T00:10:49;0.60;1.00
38938;DHT22;24727;51.974;20.868;2023-10-19T00:13:38;0.50;1.00
38938;DHT22;24727;51.974;20.868;2023-10-19T00:16:05;0.50;1.00
38938;DHT22;24727;51.974;20.868;2023-10-19T00:18:45;0.50;1.00
38938;DHT22;24727;51.974;20.868;2023-10-19T00:21:15;0.50;1.00
38938;DHT22;24727;51.974;20.868;2023-10-19T00:23:44;0.50;1.00
38938;DHT22;24727;51.974;20.868;2023-10-19T00:26:13;0.50;1.00
38938;DHT22;24727;51.974;20.868;2023-10-19T00:28:43;0.50;1.00
38938;DHT22;24727;51.974;20.868;2023-10-19T00:31:12;0.50;1.00
38938;DHT22;24727;51.974;20.868;2023-10-19T00:33:39;0.50;1.00
38938;DHT22;24727;51.974;20.868;2023-10-19T00:36:07;0.50;1.00
38938;DHT22;24727;51.974;20.868;2023-10-19T00:38:34;0.50;1.00
38938;DHT22;24727;51.974;20.868;2023-10-19T00:41:01;0.50;1.00
38938;DHT22;24727;51.974;20.868;2023-10-19T00:43:43;0.50;1.00
38938;DHT22;24727;51.974;20.868;2023-10-19T00:46:15;0.50;1.00
38938;DHT22;24727;51.974;20.868;2023-10-19T00:48:55;0.40;1.00
38938;DHT22;24727;51.974;20.868;2023-10-19T00:51:27;0.40;1.00
38938;DHT22;24727;51.974;20.868;2023-10-19T00:54:06;0.40;1.00
38938;DHT22;24727;51.974;20.868;2023-10-19T00:56:37;0.40;1.00
38938;DHT22;24727;51.974;20.868;2023-10-19T00:59:08;0.40;1.00
38938;DHT22;24727;51.974;20.868;2023-10-19T01:01:41;0.40;1.00
38938;DHT22;24727;51.974;20.868;2023-10-19T01:04:11;0.30;1.00
38938;DHT22;24727;51.974;20.868;2023-10-19T01:06:50;0.20;1.00
38938;DHT22;24727;51.974;20.868;2023-10-19T01:09:28;0.20;1.00
38938;DHT22;24727;51.974;20.868;2023-10-19T01:11:54;0.20;1.00
38938;DHT22;24727;51.974;20.868;2023-10-19T01:14:21;0.20;1.00
38938;DHT22;24727;51.974;20.868;2023-10-19T01:16:48;0.20;1.00
38938;DHT22;24727;51.974;20.868;2023-10-19T01:19:23;0.20;1.00
38938;DHT22;24727;51.974;20.868;2023-10-19T01:21:50;0.20;1.00
38938;DHT22;24727;51.974;20.868;2023-10-19T01:24:24;0.20;1.00
38938;DHT22;24727;51.974;20.868;2023-10-19T01:27:28;0.20;1.00
38938;DHT22;24727;51.974;20.868;2023-10-19T01:29:54;0.10;1.00
38938;DHT22;24727;51.974;20.868;2023-10-19T01:32:30;0.10;1.00
38938;DHT22;24727;51.974;20.868;2023-10-19T01:35:06;0.00;1.00
38938;DHT22;24727;51.974;20.868;2023-10-19T01:37:36;0.00;1.00
38938;DHT22;24727;51.974;20.868;2023-10-19T01:40:08;-0.10;1.00
38938;DHT22;24727;51.974;20.868;2023-10-19T01:42:42;-0.10;1.00
38938;DHT22;24727;51.974;20.868;2023-10-19T01:45:13;-0.30;1.00
38938;DHT22;24727;51.974;20.868;2023-10-19T01:47:40;-0.30;1.00
38938;DHT22;24727;51.974;20.868;2023-10-19T01:50:14;-0.20;1.00
38938;DHT22;24727;51.974;20.868;2023-10-19T01:52:45;-0.20;1.00
38938;DHT22;24727;51.974;20.868;2023-10-19T01:55:12;-0.30;1.00
38938;DHT22;24727;51.974;20.868;2023-10-19T01:57:38;-0.20;1.00
38938;DHT22;24727;51.974;20.868;2023-10-19T02:00:06;-0.40;1.00
38938;DHT22;24727;51.974;20.868;2023-10-19T02:02:36;-0.30;1.00
38938;DHT22;24727;51.974;20.868;2023-10-19T02:05:03;-0.30;1.00
38938;DHT22;24727;51.974;20.868;2023-10-19T02:07:35;-0.30;1.00
38938;DHT22;24727;51.974;20.868;2023-10-19T02:10:01;-0.30;1.00
38938;DHT22;24727;51.974;20.868;2023-10-19T02:12:27;-0.20;1.00
38938;DHT22;24727;51.974;20.868;2023-10-19T02:14:55;-0.20;1.00
38938;DHT22;24727;51.974;20.868;2023-10-19T02:17:21;-0.20;1.00
38938;DHT22;24727;51.974;20.868;2023-10-19T02:19:49;-0.20;1.00
38938;DHT22;24727;51.974;20.868;2023-10-19T02:22:15;-0.20;1.00
38938;DHT22;24727;51.974;20.868;2023-10-19T02:24:43;-0.20;1.00
38938;DHT22;24727;51.974;20.868;2023-10-19T02:27:11;-0.20;1.00
38938;DHT22;24727;51.974;20.868;2023-10-19T02:29:37;-0.20;1.00
38938;DHT22;24727;51.974;20.868;2023-10-19T02:32:04;-0.20;1.00
38938;DHT22;24727;51.974;20.868;2023-10-19T02:34:31;-0.20;1.00
38938;DHT22;24727;51.974;20.868;2023-10-19T02:36:57;-0.20;1.00
38938;DHT22;24727;51.974;20.868;2023-10-19T02:39:23;-0.20;1.00
38938;DHT22;24727;51.974;20.868;2023-10-19T02:41:54;-0.20;1.00
38938;DHT22;24727;51.974;20.868;2023-10-19T02:44:26;-0.20;1.00
38938;DHT22;24727;51.974;20.868;2023-10-19T02:46:54;-0.20;1.00
38938;DHT22;24727;51.974;20.868;2023-10-19T02:49:32;-0.30;1.00
38938;DHT22;24727;51.974;20.868;2023-10-19T02:52:04;-0.20;1.00
38938;DHT22;24727;51.974;20.868;2023-10-19T02:54:31;-0.20;1.00
38938;DHT22;24727;51.974;20.868;2023-10-19T02:57:00;-0.10;1.00
38938;DHT22;24727;51.974;20.868;2023-10-19T02:59:28;-0.10;1.00
38938;DHT22;24727;51.974;20.868;2023-10-19T03:01:56;-0.10;1.00
38938;DHT22;24727;51.974;20.868;2023-10-19T03:04:27;-0.10;1.00
38938;DHT22;24727;51.974;20.868;2023-10-19T03:06:55;-0.10;1.00
38938;DHT22;24727;51.974;20.868;2023-10-19T03:09:23;-0.20;1.00
38938;DHT22;24727;51.974;20.868;2023-10-19T03:12:05;-0.20;1.00
38938;DHT22;24727;51.974;20.868;2023-10-19T03:14:37;-0.20;1.00
38938;DHT22;24727;51.974;20.868;2023-10-19T03:17:11;-0.20;1.00
38938;DHT22;24727;51.974;20.868;2023-10-19T03:19:38;-0.30;1.00
38938;DHT22;24727;51.974;20.868;2023-10-19T03:22:04;-0.30;1.00
38938;DHT22;24727;51.974;20.868;2023-10-19T03:24:32;-0.30;1.00
38938;DHT22;24727;51.974;20.868;2023-10-19T03:27:03;-0.30;1.00
38938;DHT22;24727;51.974;20.868;2023-10-19T03:29:42;-0.30;1.00
38938;DHT22;24727;51.974;20.868;2023-10-19T03:32:12;-0.30;1.00
38938;DHT22;24727;51.974;20.868;2023-10-19T03:34:38;-0.30;1.00
38938;DHT22;24727;51.974;20.868;2023-10-19T03:37:09;-0.30;1.00
38938;DHT22;24727;51.974;20.868;2023-10-19T03:39:38;-0.20;1.00
38938;DHT22;24727;51.974;20.868;2023-10-19T03:42:04;-0.30;1.00
38938;DHT22;24727;51.974;20.868;2023-10-19T03:44:40;-0.40;1.00
38938;DHT22;24727;51.974;20.868;2023-10-19T03:47:16;-0.40;1.00
38938;DHT22;24727;51.974;20.868;2023-10-19T03:49:55;-0.50;1.00
38938;DHT22;24727;51.974;20.868;2023-10-19T03:52:22;-0.50;1.00
38938;DHT22;24727;51.974;20.868;2023-10-19T03:54:48;-0.40;1.00
38938;DHT22;24727;51.974;20.868;2023-10-19T03:57:16;-0.40;1.00
38938;DHT22;24727;51.974;20.868;2023-10-19T03:59:47;-0.40;1.00
38938;DHT22;24727;51.974;20.868;2023-10-19T04:02:18;-0.30;1.00
38938;DHT22;24727;51.974;20.868;2023-10-19T04:04:50;-0.30;1.00
38938;DHT22;24727;51.974;20.868;2023-10-19T04:07:18;-0.30;1.00
38938;DHT22;24727;51.974;20.868;2023-10-19T04:09:52;-0.20;1.00
38938;DHT22;24727;51.974;20.868;2023-10-19T04:12:25;-0.30;1.00
38938;DHT22;24727;51.974;20.868;2023-10-19T04:14:55;-0.30;1.00
38938;DHT22;24727;51.974;20.868;2023-10-19T04:17:22;-0.40;1.00
38938;DHT22;24727;51.974;20.868;2023-10-19T04:19:50;-0.40;1.00
38938;DHT22;24727;51.974;20.868;2023-10-19T04:22:21;-0.40;1.00
38938;DHT22;24727;51.974;20.868;2023-10-19T04:24:50;-0.40;1.00
38938;DHT22;24727;51.974;20.868;2023-10-19T04:27:16;-0.50;1.00
38938;DHT22;24727;51.974;20.868;2023-10-19T04:29:43;-0.60;1.00
38938;DHT22;24727;51.974;20.868;2023-10-19T04:32:11;-0.50;1.00
38938;DHT22;24727;51.974;20.868;2023-10-19T04:34:39;-0.50;1.00
38938;DHT22;24727;51.974;20.868;2023-10-19T04:37:06;-0.60;1.00
38938;DHT22;24727;51.974;20.868;2023-10-19T04:39:33;-0.70;1.00
38938;DHT22;24727;51.974;20.868;2023-10-19T04:42:00;-0.70;1.00
38938;DHT22;24727;51.974;20.868;2023-10-19T04:44:26;-0.70;1.00
38938;DHT22;24727;51.974;20.868;2023-10-19T04:46:53;-0.70;1.00
38938;DHT22;24727;51.974;20.868;2023-10-19T04:49:19;-0.70;1.00
38938;DHT22;24727;51.974;20.868;2023-10-19T04:51:46;-0.60;1.00
38938;DHT22;24727;51.974;20.868;2023-10-19T04:54:12;-0.60;1.00
38938;DHT22;24727;51.974;20.868;2023-10-19T04:56:38;-0.60;1.00
38938;DHT22;24727;51.974;20.868;2023-10-19T04:59:03;-0.50;1.00
38938;DHT22;24727;51.974;20.868;2023-10-19T05:01:30;-0.50;1.00
38938;DHT22;24727;51.974;20.868;2023-10-19T05:03:59;-0.50;1.00
38938;DHT22;24727;51.974;20.868;2023-10-19T05:06:27;-0.60;1.00
38938;DHT22;24727;51.974;20.868;2023-10-19T05:08:54;-0.60;1.00
38938;DHT22;24727;51.974;20.868;2023-10-19T05:11:20;-0.70;1.00
38938;DHT22;24727;51.974;20.868;2023-10-19T05:13:46;-0.70;1.00
38938;DHT22;24727;51.974;20.868;2023-10-19T05:16:12;-0.60;1.00
38938;DHT22;24727;51.974;20.868;2023-10-19T05:18:38;-0.60;1.00
38938;DHT22;24727;51.974;20.868;2023-10-19T05:21:05;-0.50;1.00
38938;DHT22;24727;51.974;20.868;2023-10-19T05:23:31;-0.60;1.00
38938;DHT22;24727;51.974;20.868;2023-10-19T05:26:07;-0.50;1.00
38938;DHT22;24727;51.974;20.868;2023-10-19T05:28:33;-0.60;1.00
38938;DHT22;24727;51.974;20.868;2023-10-19T05:30:59;-0.50;1.00
38938;DHT22;24727;51.974;20.868;2023-10-19T05:33:27;-0.50;1.00
38938;DHT22;24727;51.974;20.868;2023-10-19T05:35:54;-0.50;1.00
38938;DHT22;24727;51.974;20.868;2023-10-19T05:38:21;-0.50;1.00
38938;DHT22;24727;51.974;20.868;2023-10-19T05:40:48;-0.40;1.00
38938;DHT22;24727;51.974;20.868;2023-10-19T05:43:16;-0.40;1.00
38938;DHT22;24727;51.974;20.868;2023-10-19T05:45:44;-0.40;1.00
38938;DHT22;24727;51.974;20.868;2023-10-19T05:48:11;-0.30;1.00
38938;DHT22;24727;51.974;20.868;2023-10-19T05:50:37;-0.30;1.00
38938;DHT22;24727;51.974;20.868;2023-10-19T05:53:05;-0.30;1.00
38938;DHT22;24727;51.974;20.868;2023-10-19T05:55:31;-0.20;1.00
38938;DHT22;24727;51.974;20.868;2023-10-19T05:57:59;-0.20;1.00
38938;DHT22;24727;51.974;20.868;2023-10-19T06:00:26;-0.20;1.00
38938;DHT22;24727;51.974;20.868;2023-10-19T06:02:52;-0.20;1.00
38938;DHT22;24727;51.974;20.868;2023-10-19T06:05:21;-0.10;1.00
38938;DHT22;24727;51.974;20.868;2023-10-19T06:07:48;-0.10;1.00
38938;DHT22;24727;51.974;20.868;2023-10-19T06:10:22;-0.10;1.00
38938;DHT22;24727;51.974;20.868;2023-10-19T06:12:51;0.00;1.00
38938;DHT22;24727;51.974;20.868;2023-10-19T06:15:20;0.00;1.00
38938;DHT22;24727;51.974;20.868;2023-10-19T06:17:49;0.10;1.00
38938;DHT22;24727;51.974;20.868;2023-10-19T06:20:15;0.10;1.00
38938;DHT22;24727;51.974;20.868;2023-10-19T06:22:53;0.20;1.00
38938;DHT22;24727;51.974;20.868;2023-10-19T06:25:24;0.30;1.00
38938;DHT22;24727;51.974;20.868;2023-10-19T06:27:51;0.30;1.00
38938;DHT22;24727;51.974;20.868;2023-10-19T06:30:18;0.40;1.00
38938;DHT22;24727;51.974;20.868;2023-10-19T06:32:47;0.40;1.00
38938;DHT22;24727;51.974;20.868;2023-10-19T06:35:13;0.40;1.00
38938;DHT22;24727;51.974;20.868;2023-10-19T06:37:39;0.50;1.00
38938;DHT22;24727;51.974;20.868;2023-10-19T06:40:06;0.60;1.00
38938;DHT22;24727;51.974;20.868;2023-10-19T06:42:32;0.70;1.00
38938;DHT22;24727;51.974;20.868;2023-10-19T06:45:01;0.70;1.00
38938;DHT22;24727;51.974;20.868;2023-10-19T06:47:27;0.80;1.00
38938;DHT22;24727;51.974;20.868;2023-10-19T06:49:55;0.90;1.00
38938;DHT22;24727;51.974;20.868;2023-10-19T06:52:22;0.90;1.00
38938;DHT22;24727;51.974;20.868;2023-10-19T06:54:48;1.00;1.00
38938;DHT22;24727;51.974;20.868;2023-10-19T06:57:14;1.10;1.00
38938;DHT22;24727;51.974;20.868;2023-10-19T06:59:40;1.20;1.00
38938;DHT22;24727;51.974;20.868;2023-10-19T07:02:06;1.30;1.00
38938;DHT22;24727;51.974;20.868;2023-10-19T07:04:33;1.40;1.00
38938;DHT22;24727;51.974;20.868;2023-10-19T07:06:59;1.50;1.00
38938;DHT22;24727;51.974;20.868;2023-10-19T07:09:27;1.50;1.00
38938;DHT22;24727;51.974;20.868;2023-10-19T07:11:53;1.60;1.00
38938;DHT22;24727;51.974;20.868;2023-10-19T07:14:20;1.70;1.00
38938;DHT22;24727;51.974;20.868;2023-10-19T07:16:49;1.80;1.00
38938;DHT22;24727;51.974;20.868;2023-10-19T07:19:18;1.90;1.00
38938;DHT22;24727;51.974;20.868;2023-10-19T07:21:44;2.10;1.00
38938;DHT22;24727;51.974;20.868;2023-10-19T07:24:15;2.10;1.00
38938;DHT22;24727;51.974;20.868;2023-10-19T07:26:41;2.30;1.00
38938;DHT22;24727;51.974;20.868;2023-10-19T07:29:21;2.40;1.00
38938;DHT22;24727;51.974;20.868;2023-10-19T07:31:47;2.50;1.00
38938;DHT22;24727;51.974;20.868;2023-10-19T07:34:13;2.60;1.00
38938;DHT22;24727;51.974;20.868;2023-10-19T07:36:41;2.80;1.00
38938;DHT22;24727;51.974;20.868;2023-10-19T07:39:10;2.90;1.00
38938;DHT22;24727;51.974;20.868;2023-10-19T07:41:44;3.10;1.00
38938;DHT22;24727;51.974;20.868;2023-10-19T07:44:12;3.30;1.00
38938;DHT22;24727;51.974;20.868;2023-10-19T07:46:38;3.40;1.00
38938;DHT22;24727;51.974;20.868;2023-10-19T07:49:04;3.50;1.00
38938;DHT22;24727;51.974;20.868;2023-10-19T07:51:32;3.60;1.00
38938;DHT22;24727;51.974;20.868;2023-10-19T07:53:59;3.70;1.00
38938;DHT22;24727;51.974;20.868;2023-10-19T07:56:25;3.80;1.00
38938;DHT22;24727;51.974;20.868;2023-10-19T07:58:51;3.90;1.00
38938;DHT22;24727;51.974;20.868;2023-10-19T08:01:17;4.10;1.00
38938;DHT22;24727;51.974;20.868;2023-10-19T08:03:44;4.10;1.00
38938;DHT22;24727;51.974;20.868;2023-10-19T08:06:10;4.30;1.00
38938;DHT22;24727;51.974;20.868;2023-10-19T08:08:37;4.30;1.00
38938;DHT22;24727;51.974;20.868;2023-10-19T08:11:04;4.40;1.00
38938;DHT22;24727;51.974;20.868;2023-10-19T08:13:31;4.50;1.00
38938;DHT22;24727;51.974;20.868;2023-10-19T08:16:00;4.60;1.00
38938;DHT22;24727;51.974;20.868;2023-10-19T08:18:26;4.60;1.00
38938;DHT22;24727;51.974;20.868;2023-10-19T08:20:52;4.70;1.00
38938;DHT22;24727;51.974;20.868;2023-10-19T08:23:20;4.80;1.00
38938;DHT22;24727;51.974;20.868;2023-10-19T08:25:50;4.80;1.00
38938;DHT22;24727;51.974;20.868;2023-10-19T08:28:16;4.90;1.00
38938;DHT22;24727;51.974;20.868;2023-10-19T08:30:43;5.00;1.00
38938;DHT22;24727;51.974;20.868;2023-10-19T08:33:10;5.20;1.00
38938;DHT22;24727;51.974;20.868;2023-10-19T08:35:40;5.30;1.00
38938;DHT22;24727;51.974;20.868;2023-10-19T08:38:08;5.30;1.00
38938;DHT22;24727;51.974;20.868;2023-10-19T08:40:37;5.40;1.00
38938;DHT22;24727;51.974;20.868;2023-10-19T08:43:04;5.60;1.00
38938;DHT22;24727;51.974;20.868;2023-10-19T08:45:30;5.60;1.00
38938;DHT22;24727;51.974;20.868;2023-10-19T08:48:01;5.70;1.00
38938;DHT22;24727;51.974;20.868;2023-10-19T08:50:31;5.80;1.00
38938;DHT22;24727;51.974;20.868;2023-10-19T08:53:00;5.90;1.00
38938;DHT22;24727;51.974;20.868;2023-10-19T08:55:27;6.00;1.00
38938;DHT22;24727;51.974;20.868;2023-10-19T08:58:01;6.10;1.00
38938;DHT22;24727;51.974;20.868;2023-10-19T09:00:45;6.20;1.00
38938;DHT22;24727;51.974;20.868;2023-10-19T09:03:13;6.20;1.00
38938;DHT22;24727;51.974;20.868;2023-10-19T09:05:40;6.30;1.00
38938;DHT22;24727;51.974;20.868;2023-10-19T09:08:07;6.40;1.00
38938;DHT22;24727;51.974;20.868;2023-10-19T09:10:37;6.50;1.00
38938;DHT22;24727;51.974;20.868;2023-10-19T09:13:07;6.60;1.00
38938;DHT22;24727;51.974;20.868;2023-10-19T09:15:39;6.60;1.00
38938;DHT22;24727;51.974;20.868;2023-10-19T09:18:22;6.70;1.00
38938;DHT22;24727;51.974;20.868;2023-10-19T09:20:52;6.80;1.00
38938;DHT22;24727;51.974;20.868;2023-10-19T09:23:25;6.90;1.00
38938;DHT22;24727;51.974;20.868;2023-10-19T09:25:57;6.90;1.00
38938;DHT22;24727;51.974;20.868;2023-10-19T09:28:24;7.00;1.00
38938;DHT22;24727;51.974;20.868;2023-10-19T09:30:51;7.00;1.00
38938;DHT22;24727;51.974;20.868;2023-10-19T09:33:17;7.10;1.00
38938;DHT22;24727;51.974;20.868;2023-10-19T09:35:47;7.10;1.00
38938;DHT22;24727;51.974;20.868;2023-10-19T09:38:17;7.10;1.00
38938;DHT22;24727;51.974;20.868;2023-10-19T09:40:51;7.20;1.00
38938;DHT22;24727;51.974;20.868;2023-10-19T09:43:37;7.20;1.00
38938;DHT22;24727;51.974;20.868;2023-10-19T09:46:08;7.30;1.00
38938;DHT22;24727;51.974;20.868;2023-10-19T09:48:43;7.30;1.00
38938;DHT22;24727;51.974;20.868;2023-10-19T09:51:12;7.40;1.00
38938;DHT22;24727;51.974;20.868;2023-10-19T09:53:39;7.40;1.00
38938;DHT22;24727;51.974;20.868;2023-10-19T09:56:17;7.50;1.00
38938;DHT22;24727;51.974;20.868;2023-10-19T09:58:48;7.60;1.00
38938;DHT22;24727;51.974;20.868;2023-10-19T10:01:15;7.60;1.00
38938;DHT22;24727;51.974;20.868;2023-10-19T10:03:52;7.70;1.00
38938;DHT22;24727;51.974;20.868;2023-10-19T10:06:31;7.70;1.00
38938;DHT22;24727;51.974;20.868;2023-10-19T10:09:18;7.70;1.00
38938;DHT22;24727;51.974;20.868;2023-10-19T10:11:53;7.80;1.00
38938;DHT22;24727;51.974;20.868;2023-10-19T10:14:22;7.70;1.00
38938;DHT22;24727;51.974;20.868;2023-10-19T10:17:01;7.80;1.00
38938;DHT22;24727;51.974;20.868;2023-10-19T10:19:27;7.80;1.00
38938;DHT22;24727;51.974;20.868;2023-10-19T10:22:11;7.90;1.00
38938;DHT22;24727;51.974;20.868;2023-10-19T10:24:44;8.00;1.00
38938;DHT22;24727;51.974;20.868;2023-10-19T10:27:11;8.10;1.00
38938;DHT22;24727;51.974;20.868;2023-10-19T10:30:00;8.30;1.00
38938;DHT22;24727;51.974;20.868;2023-10-19T10:32:46;8.30;1.00
38938;DHT22;24727;51.974;20.868;2023-10-19T10:38:10;8.50;1.00
38938;DHT22;24727;51.974;20.868;2023-10-19T10:40:48;8.60;1.00
38938;DHT22;24727;51.974;20.868;2023-10-19T10:43:15;8.60;1.00
38938;DHT22;24727;51.974;20.868;2023-10-19T10:45:42;8.70;1.00
38938;DHT22;24727;51.974;20.868;2023-10-19T10:48:13;8.80;1.00
38938;DHT22;24727;51.974;20.868;2023-10-19T10:50:39;8.80;1.00
38938;DHT22;24727;51.974;20.868;2023-10-19T10:53:10;8.90;1.00
38938;DHT22;24727;51.974;20.868;2023-10-19T10:55:40;8.90;1.00
38938;DHT22;24727;51.974;20.868;2023-10-19T10:58:07;8.90;1.00
38938;DHT22;24727;51.974;20.868;2023-10-19T11:00:42;8.90;1.00
38938;DHT22;24727;51.974;20.868;2023-10-19T11:03:08;9.00;1.00
38938;DHT22;24727;51.974;20.868;2023-10-19T11:05:38;9.10;1.00
38938;DHT22;24727;51.974;20.868;2023-10-19T11:08:09;9.20;1.00
38938;DHT22;24727;51.974;20.868;2023-10-19T11:10:37;9.20;1.00
38938;DHT22;24727;51.974;20.868;2023-10-19T11:13:07;9.30;1.00
38938;DHT22;24727;51.974;20.868;2023-10-19T11:15:36;9.30;1.00
38938;DHT22;24727;51.974;20.868;2023-10-19T11:18:04;9.30;1.00
38938;DHT22;24727;51.974;20.868;2023-10-19T11:20:33;9.30;1.00
38938;DHT22;24727;51.974;20.868;2023-10-19T11:23:00;9.20;1.00
38938;DHT22;24727;51.974;20.868;2023-10-19T11:25:28;9.20;1.00
38938;DHT22;24727;51.974;20.868;2023-10-19T11:27:59;9.10;1.00
38938;DHT22;24727;51.974;20.868;2023-10-19T11:30:31;9.20;1.00
38938;DHT22;24727;51.974;20.868;2023-10-19T11:32:58;9.30;1.00
38938;DHT22;24727;51.974;20.868;2023-10-19T11:35:30;9.30;1.00
38938;DHT22;24727;51.974;20.868;2023-10-19T11:37:58;9.30;1.00
38938;DHT22;24727;51.974;20.868;2023-10-19T11:40:31;9.30;1.00
38938;DHT22;24727;51.974;20.868;2023-10-19T11:42:57;9.20;1.00
38938;DHT22;24727;51.974;20.868;2023-10-19T11:45:26;9.10;1.40
38938;DHT22;24727;51.974;20.868;2023-10-19T11:47:53;9.20;1.00
38938;DHT22;24727;51.974;20.868;2023-10-19T11:50:20;9.20;1.00
38938;DHT22;24727;51.974;20.868;2023-10-19T11:52:48;9.20;1.00
38938;DHT22;24727;51.974;20.868;2023-10-19T11:55:15;9.20;1.00
38938;DHT22;24727;51.974;20.868;2023-10-19T11:57:44;9.20;1.00
38938;DHT22;24727;51.974;20.868;2023-10-19T12:00:12;9.20;1.00
38938;DHT22;24727;51.974;20.868;2023-10-19T12:02:47;9.30;1.00
38938;DHT22;24727;51.974;20.868;2023-10-19T12:05:15;9.20;1.00
38938;DHT22;24727;51.974;20.868;2023-10-19T12:07:42;9.20;1.00
38938;DHT22;24727;51.974;20.868;2023-10-19T12:10:11;9.20;1.00
38938;DHT22;24727;51.974;20.868;2023-10-19T12:12:40;9.20;1.00
38938;DHT22;24727;51.974;20.868;2023-10-19T12:15:08;9.20;1.00
38938;DHT22;24727;51.974;20.868;2023-10-19T12:17:35;9.20;1.00
38938;DHT22;24727;51.974;20.868;2023-10-19T12:20:02;9.20;1.00
38938;DHT22;24727;51.974;20.868;2023-10-19T12:22:28;9.20;1.00
38938;DHT22;24727;51.974;20.868;2023-10-19T12:24:57;9.30;1.00
38938;DHT22;24727;51.974;20.868;2023-10-19T12:27:25;9.20;1.00
38938;DHT22;24727;51.974;20.868;2023-10-19T12:29:51;9.20;1.00
38938;DHT22;24727;51.974;20.868;2023-10-19T12:32:22;9.30;1.00
38938;DHT22;24727;51.974;20.868;2023-10-19T12:34:48;9.20;1.00
38938;DHT22;24727;51.974;20.868;2023-10-19T12:37:21;9.30;1.00
38938;DHT22;24727;51.974;20.868;2023-10-19T12:39:47;9.30;1.00
38938;DHT22;24727;51.974;20.868;2023-10-19T12:42:15;9.30;1.00
38938;DHT22;24727;51.974;20.868;2023-10-19T12:44:41;9.30;1.00
38938;DHT22;24727;51.974;20.868;2023-10-19T12:47:10;9.40;1.00
38938;DHT22;24727;51.974;20.868;2023-10-19T12:49:40;9.30;1.00
38938;DHT22;24727;51.974;20.868;2023-10-19T12:52:09;9.30;1.00
38938;DHT22;24727;51.974;20.868;2023-10-19T12:54:36;9.40;1.00
38938;DHT22;24727;51.974;20.868;2023-10-19T12:57:03;9.40;1.00
38938;DHT22;24727;51.974;20.868;2023-10-19T12:59:33;9.40;1.00
38938;DHT22;24727;51.974;20.868;2023-10-19T13:01:59;9.40;1.00
38938;DHT22;24727;51.974;20.868;2023-10-19T13:04:29;9.40;1.00
38938;DHT22;24727;51.974;20.868;2023-10-19T13:06:57;9.40;1.00
38938;DHT22;24727;51.974;20.868;2023-10-19T13:09:26;9.50;1.00
38938;DHT22;24727;51.974;20.868;2023-10-19T13:12:00;9.50;1.00
38938;DHT22;24727;51.974;20.868;2023-10-19T13:14:27;9.50;1.00
38938;DHT22;24727;51.974;20.868;2023-10-19T13:16:54;9.50;1.00
38938;DHT22;24727;51.974;20.868;2023-10-19T13:19:22;9.60;1.00
38938;DHT22;24727;51.974;20.868;2023-10-19T13:21:52;9.50;1.00
38938;DHT22;24727;51.974;20.868;2023-10-19T13:24:18;9.50;1.00
38938;DHT22;24727;51.974;20.868;2023-10-19T13:26:48;9.60;1.00
38938;DHT22;24727;51.974;20.868;2023-10-19T13:29:14;9.60;1.00
38938;DHT22;24727;51.974;20.868;2023-10-19T13:31:41;9.60;1.00
38938;DHT22;24727;51.974;20.868;2023-10-19T13:34:15;9.60;1.00
38938;DHT22;24727;51.974;20.868;2023-10-19T13:36:41;9.60;1.00
38938;DHT22;24727;51.974;20.868;2023-10-19T13:39:10;9.60;1.00
38938;DHT22;24727;51.974;20.868;2023-10-19T13:41:43;9.60;1.00
38938;DHT22;24727;51.974;20.868;2023-10-19T13:44:09;9.70;1.00
38938;DHT22;24727;51.974;20.868;2023-10-19T13:46:37;9.80;1.00
38938;DHT22;24727;51.974;20.868;2023-10-19T13:49:03;9.70;1.00
38938;DHT22;24727;51.974;20.868;2023-10-19T13:51:32;9.70;1.00
38938;DHT22;24727;51.974;20.868;2023-10-19T13:53:59;9.70;1.00
38938;DHT22;24727;51.974;20.868;2023-10-19T13:56:25;9.80;1.00
38938;DHT22;24727;51.974;20.868;2023-10-19T13:58:52;9.80;1.00
38938;DHT22;24727;51.974;20.868;2023-10-19T14:01:17;9.80;1.00
38938;DHT22;24727;51.974;20.868;2023-10-19T14:03:44;9.90;1.00
38938;DHT22;24727;51.974;20.868;2023-10-19T14:06:14;9.90;1.00
38938;DHT22;24727;51.974;20.868;2023-10-19T14:08:40;9.90;1.00
38938;DHT22;24727;51.974;20.868;2023-10-19T14:11:07;9.90;1.00
38938;DHT22;24727;51.974;20.868;2023-10-19T14:13:35;9.90;1.00
38938;DHT22;24727;51.974;20.868;2023-10-19T14:16:05;9.90;1.00
38938;DHT22;24727;51.974;20.868;2023-10-19T14:18:31;10.00;1.00
38938;DHT22;24727;51.974;20.868;2023-10-19T14:20:59;9.90;1.00
38938;DHT22;24727;51.974;20.868;2023-10-19T14:23:27;9.90;1.00
38938;DHT22;24727;51.974;20.868;2023-10-19T14:25:54;9.90;1.00
38938;DHT22;24727;51.974;20.868;2023-10-19T14:28:19;9.90;1.00
38938;DHT22;24727;51.974;20.868;2023-10-19T14:30:51;9.90;1.00
38938;DHT22;24727;51.974;20.868;2023-10-19T14:33:18;10.00;1.00
38938;DHT22;24727;51.974;20.868;2023-10-19T14:35:44;9.90;1.00
38938;DHT22;24727;51.974;20.868;2023-10-19T14:38:10;9.90;1.00
38938;DHT22;24727;51.974;20.868;2023-10-19T14:40:39;9.80;1.00
38938;DHT22;24727;51.974;20.868;2023-10-19T14:43:10;9.80;1.00
38938;DHT22;24727;51.974;20.868;2023-10-19T14:45:40;9.80;1.00
38938;DHT22;24727;51.974;20.868;2023-10-19T14:48:06;9.70;1.00
38938;DHT22;24727;51.974;20.868;2023-10-19T14:50:36;9.80;1.00
38938;DHT22;24727;51.974;20.868;2023-10-19T14:53:03;9.70;1.00
38938;DHT22;24727;51.974;20.868;2023-10-19T14:55:29;9.80;1.00
38938;DHT22;24727;51.974;20.868;2023-10-19T14:57:57;9.70;1.00
38938;DHT22;24727;51.974;20.868;2023-10-19T15:00:24;9.60;1.00
38938;DHT22;24727;51.974;20.868;2023-10-19T15:03:01;9.40;1.00
38938;DHT22;24727;51.974;20.868;2023-10-19T15:05:33;9.40;1.00
38938;DHT22;24727;51.974;20.868;2023-10-19T15:08:02;9.50;1.00
38938;DHT22;24727;51.974;20.868;2023-10-19T15:10:31;9.50;1.00
38938;DHT22;24727;51.974;20.868;2023-10-19T15:12:58;9.60;1.00
38938;DHT22;24727;51.974;20.868;2023-10-19T15:15:26;9.40;1.00
38938;DHT22;24727;51.974;20.868;2023-10-19T15:17:53;9.30;1.00
38938;DHT22;24727;51.974;20.868;2023-10-19T15:20:21;9.30;1.00
38938;DHT22;24727;51.974;20.868;2023-10-19T15:22:48;9.50;1.00
38938;DHT22;24727;51.974;20.868;2023-10-19T15:25:14;9.60;1.00
38938;DHT22;24727;51.974;20.868;2023-10-19T15:27:45;9.50;1.00
38938;DHT22;24727;51.974;20.868;2023-10-19T15:30:12;9.30;1.00
38938;DHT22;24727;51.974;20.868;2023-10-19T15:32:40;9.20;1.00
38938;DHT22;24727;51.974;20.868;2023-10-19T15:35:14;9.10;1.00
38938;DHT22;24727;51.974;20.868;2023-10-19T15:37:48;9.00;1.00
38938;DHT22;24727;51.974;20.868;2023-10-19T15:40:18;8.90;1.00
38938;DHT22;24727;51.974;20.868;2023-10-19T15:42:46;8.90;1.00
38938;DHT22;24727;51.974;20.868;2023-10-19T15:45:14;9.00;1.00
38938;DHT22;24727;51.974;20.868;2023-10-19T15:47:44;9.10;1.00
38938;DHT22;24727;51.974;20.868;2023-10-19T15:50:15;9.10;1.00
38938;DHT22;24727;51.974;20.868;2023-10-19T15:52:43;9.10;1.00
38938;DHT22;24727;51.974;20.868;2023-10-19T15:55:12;8.90;1.00
38938;DHT22;24727;51.974;20.868;2023-10-19T15:57:39;8.90;1.00